createdAt,value
2018-08-04T00:00:16.659Z,0
2018-08-04T00:01:26.508Z,0
2018-08-04T00:03:05.609Z,0
2018-08-04T00:04:15.182Z,0
2018-08-04T00:05:24.755Z,0
2018-08-04T00:06:34.603Z,0
2018-08-04T00:07:44.183Z,0
2018-08-04T00:08:54.032Z,0
2018-08-04T00:10:03.613Z,0
2018-08-04T00:11:13.456Z,0
2018-08-04T00:12:23.040Z,0
2018-08-04T00:13:33.157Z,0
2018-08-04T00:14:43.005Z,0
2018-08-04T00:15:52.847Z,0
2018-08-04T00:17:02.429Z,0
2018-08-04T00:18:12.005Z,0
2018-08-04T00:19:21.898Z,0
2018-08-04T00:20:32.016Z,0
2018-08-04T00:21:41.868Z,0
2018-08-04T00:22:51.745Z,0
2018-08-04T00:24:01.588Z,0
2018-08-04T00:25:10.897Z,0
2018-08-04T00:26:21.026Z,0
2018-08-04T00:27:30.879Z,0
2018-08-04T00:28:40.719Z,0
2018-08-04T00:29:50.562Z,0
2018-08-04T00:31:00.136Z,0
2018-08-04T00:32:09.979Z,0
2018-08-04T00:33:20.091Z,0
2018-08-04T00:34:29.663Z,0
2018-08-04T00:35:39.240Z,0
2018-08-04T00:36:48.546Z,0
2018-08-04T00:37:58.121Z,0
2018-08-04T00:39:07.970Z,0
2018-08-04T00:40:17.825Z,0
2018-08-04T00:41:27.405Z,0
2018-08-04T00:42:36.975Z,0
2018-08-04T00:43:47.083Z,0
2018-08-04T00:44:56.921Z,0
2018-08-04T00:46:07.037Z,0
2018-08-04T00:47:17.155Z,0
2018-08-04T00:48:26.731Z,0
2018-08-04T00:49:36.570Z,0
2018-08-04T00:50:46.150Z,0
2018-08-04T00:51:55.725Z,0
2018-08-04T00:53:05.572Z,0
2018-08-04T00:54:15.145Z,0
2018-08-04T00:55:24.457Z,0
2018-08-04T00:56:34.025Z,0
2018-08-04T00:57:43.605Z,0
2018-08-04T00:58:53.181Z,0
2018-08-04T01:00:03.040Z,0
2018-08-04T01:01:12.889Z,0
2018-08-04T01:02:23.004Z,0
2018-08-04T01:03:32.849Z,0
2018-08-04T01:04:42.698Z,0
2018-08-04T01:05:51.998Z,0
2018-08-04T01:07:01.853Z,0
2018-08-04T01:08:11.703Z,0
2018-08-04T01:09:21.549Z,0
2018-08-04T01:10:30.583Z,0
2018-08-04T01:11:40.430Z,0
2018-08-04T01:12:50.003Z,0
2018-08-04T01:13:59.312Z,0
2018-08-04T01:15:09.155Z,0
2018-08-04T01:16:18.248Z,0
2018-08-04T01:17:28.100Z,0
2018-08-04T01:18:37.667Z,0
2018-08-04T01:19:46.974Z,0
2018-08-04T01:20:56.821Z,0
2018-08-04T01:22:05.856Z,0
2018-08-04T01:23:15.430Z,0
2018-08-04T01:24:25.274Z,0
2018-08-04T01:25:35.116Z,0
2018-08-04T01:26:44.688Z,0
2018-08-04T01:27:54.856Z,0
2018-08-04T01:29:04.429Z,0
2018-08-04T01:30:14.002Z,0
2018-08-04T01:31:23.610Z,0
2018-08-04T01:32:33.457Z,0
2018-08-04T01:33:43.033Z,0
2018-08-04T01:34:52.072Z,0
2018-08-04T01:36:02.201Z,0
2018-08-04T01:37:12.047Z,0
2018-08-04T01:38:21.627Z,0
2018-08-04T01:39:31.531Z,0
2018-08-04T01:40:41.103Z,0
2018-08-04T01:41:50.451Z,0
2018-08-04T01:43:00.296Z,0
2018-08-04T01:44:10.450Z,0
2018-08-04T01:45:20.341Z,0
2018-08-04T01:46:30.459Z,0
2018-08-04T01:47:40.031Z,0
2018-08-04T01:48:49.606Z,0
2018-08-04T01:49:59.470Z,0
2018-08-04T01:51:09.604Z,0
2018-08-04T01:52:19.458Z,0
2018-08-04T01:53:29.299Z,0
2018-08-04T01:54:38.870Z,0
2018-08-04T01:55:48.174Z,0
2018-08-04T01:56:58.020Z,0
2018-08-04T01:58:07.878Z,0
2018-08-04T01:59:17.992Z,0
2018-08-04T02:00:27.845Z,0
2018-08-04T02:01:37.421Z,0
2018-08-04T02:02:47.004Z,0
2018-08-04T02:03:56.574Z,0
2018-08-04T02:05:05.875Z,0
2018-08-04T02:06:15.992Z,0
2018-08-04T02:07:25.832Z,0
2018-08-04T02:08:35.721Z,0
2018-08-04T02:09:45.300Z,0
2018-08-04T02:10:55.138Z,0
2018-08-04T02:12:04.710Z,0
2018-08-04T02:13:14.560Z,0
2018-08-04T02:14:24.141Z,0
2018-08-04T02:15:33.716Z,0
2018-08-04T02:16:43.288Z,0
2018-08-04T02:17:53.136Z,0
2018-08-04T02:19:01.905Z,0
2018-08-04T02:20:11.217Z,0
2018-08-04T02:21:21.055Z,0
2018-08-04T02:22:30.899Z,0
2018-08-04T02:23:40.469Z,0
2018-08-04T02:24:50.588Z,0
2018-08-04T02:26:00.432Z,0
2018-08-04T02:27:10.279Z,0
2018-08-04T02:28:19.589Z,0
2018-08-04T02:29:29.161Z,0
2018-08-04T02:30:39.284Z,0
2018-08-04T02:31:49.400Z,0
2018-08-04T02:32:58.992Z,0
2018-08-04T02:34:08.580Z,0
2018-08-04T02:35:18.433Z,0
2018-08-04T02:36:28.304Z,0
2018-08-04T02:37:38.481Z,0
2018-08-04T02:38:48.608Z,0
2018-08-04T02:39:58.197Z,0
2018-08-04T02:41:08.340Z,0
2018-08-04T02:42:17.978Z,0
2018-08-04T02:43:27.873Z,0
2018-08-04T02:44:38.000Z,0
2018-08-04T02:45:47.856Z,0
2018-08-04T02:46:57.454Z,0
2018-08-04T02:48:07.361Z,0
2018-08-04T02:49:16.670Z,0
2018-08-04T02:50:25.969Z,0
2018-08-04T02:51:35.818Z,0
2018-08-04T02:52:45.130Z,0
2018-08-04T02:53:55.251Z,0
2018-08-04T02:55:04.830Z,0
2018-08-04T02:56:14.405Z,0
2018-08-04T02:57:23.985Z,0
2018-08-04T02:58:33.837Z,0
2018-08-04T02:59:43.957Z,0
2018-08-04T03:00:53.869Z,0
2018-08-04T03:02:03.449Z,0
2018-08-04T03:03:13.596Z,0
2018-08-04T03:04:23.168Z,0
2018-08-04T03:05:33.026Z,0
2018-08-04T03:06:43.142Z,0
2018-08-04T03:07:53.269Z,0
2018-08-04T03:09:03.130Z,0
2018-08-04T03:10:12.994Z,0
2018-08-04T03:11:22.841Z,0
2018-08-04T03:12:32.204Z,0
2018-08-04T03:13:41.789Z,0
2018-08-04T03:14:51.104Z,0
2018-08-04T03:16:00.959Z,0
2018-08-04T03:17:10.817Z,0
2018-08-04T03:18:20.721Z,0
2018-08-04T03:19:30.301Z,0
2018-08-04T03:20:39.903Z,0
2018-08-04T03:21:49.486Z,0
2018-08-04T03:22:59.333Z,0
2018-08-04T03:24:09.188Z,0
2018-08-04T03:25:19.047Z,0
2018-08-04T03:26:28.624Z,0
2018-08-04T03:27:38.486Z,0
2018-08-04T03:28:48.625Z,0
2018-08-04T03:29:57.668Z,0
2018-08-04T03:31:07.254Z,0
2018-08-04T03:32:16.568Z,0
2018-08-04T03:33:26.687Z,0
2018-08-04T03:34:36.854Z,0
2018-08-04T03:35:46.431Z,0
2018-08-04T03:36:56.286Z,0
2018-08-04T03:38:05.325Z,0
2018-08-04T03:39:14.894Z,0
2018-08-04T03:40:24.746Z,5
2018-08-04T03:41:34.047Z,5
2018-08-04T03:42:43.896Z,5
2018-08-04T03:43:53.740Z,5
2018-08-04T03:45:03.312Z,5
2018-08-04T03:46:12.346Z,5
2018-08-04T03:47:22.459Z,5
2018-08-04T03:48:32.296Z,5
2018-08-04T03:49:41.875Z,5
2018-08-04T03:50:51.455Z,5
2018-08-04T03:52:01.300Z,5
2018-08-04T03:53:11.143Z,5
2018-08-04T03:54:20.724Z,5
2018-08-04T03:55:30.296Z,5
2018-08-04T03:56:40.408Z,10
2018-08-04T03:57:50.260Z,10
2018-08-04T03:59:00.380Z,10
2018-08-04T04:00:10.233Z,10
2018-08-04T04:01:20.354Z,15
2018-08-04T04:02:29.931Z,15
2018-08-04T04:03:39.507Z,15
2018-08-04T04:04:49.400Z,20
2018-08-04T04:05:59.531Z,20
2018-08-04T04:07:09.110Z,20
2018-08-04T04:08:18.686Z,20
2018-08-04T04:09:28.264Z,20
2018-08-04T04:10:37.841Z,20
2018-08-04T04:11:47.416Z,25
2018-08-04T04:12:56.721Z,25
2018-08-04T04:14:06.295Z,30
2018-08-04T04:15:16.448Z,30
2018-08-04T04:16:26.563Z,35
2018-08-04T04:17:36.138Z,40
2018-08-04T04:18:45.985Z,45
2018-08-04T04:19:55.555Z,40
2018-08-04T04:21:04.866Z,40
2018-08-04T04:22:14.482Z,40
2018-08-04T04:23:24.330Z,40
2018-08-04T04:24:33.908Z,40
2018-08-04T04:25:44.027Z,45
2018-08-04T04:26:53.605Z,45
2018-08-04T04:28:03.728Z,45
2018-08-04T04:29:13.851Z,45
2018-08-04T04:30:23.424Z,50
2018-08-04T04:31:32.998Z,50
2018-08-04T04:32:42.578Z,55
2018-08-04T04:33:52.477Z,55
2018-08-04T04:35:02.055Z,55
2018-08-04T04:36:11.674Z,60
2018-08-04T04:37:21.530Z,60
2018-08-04T04:38:31.653Z,65
2018-08-04T04:39:41.281Z,65
2018-08-04T04:40:50.859Z,65
2018-08-04T04:42:00.440Z,65
2018-08-04T04:43:10.293Z,65
2018-08-04T04:44:19.867Z,60
2018-08-04T04:45:29.447Z,65
2018-08-04T04:46:39.303Z,65
2018-08-04T04:47:49.169Z,70
2018-08-04T04:48:59.299Z,75
2018-08-04T04:50:08.610Z,80
2018-08-04T04:51:18.500Z,85
2018-08-04T04:52:28.346Z,90
2018-08-04T04:53:37.918Z,90
2018-08-04T04:54:47.509Z,95
2018-08-04T04:55:57.623Z,100
2018-08-04T04:57:07.207Z,100
2018-08-04T04:58:17.069Z,105
2018-08-04T04:59:26.914Z,105
2018-08-04T05:00:36.217Z,105
2018-08-04T05:01:45.797Z,100
2018-08-04T05:02:55.117Z,105
2018-08-04T05:04:04.967Z,105
2018-08-04T05:05:14.560Z,110
2018-08-04T05:06:24.406Z,115
2018-08-04T05:07:34.257Z,130
2018-08-04T05:08:44.212Z,135
2018-08-04T05:09:54.197Z,140
2018-08-04T05:11:03.703Z,145
2018-08-04T05:12:13.291Z,150
2018-08-04T05:13:23.308Z,150
2018-08-04T05:14:33.504Z,150
2018-08-04T05:15:43.391Z,150
2018-08-04T05:16:53.197Z,150
2018-08-04T05:18:03.040Z,150
2018-08-04T05:19:12.628Z,150
2018-08-04T05:20:22.248Z,155
2018-08-04T05:21:32.274Z,160
2018-08-04T05:22:41.858Z,160
2018-08-04T05:23:51.701Z,165
2018-08-04T05:25:01.274Z,165
2018-08-04T05:26:10.580Z,175
2018-08-04T05:27:19.889Z,185
2018-08-04T05:28:29.466Z,190
2018-08-04T05:29:39.313Z,200
2018-08-04T05:30:48.620Z,200
2018-08-04T05:31:58.660Z,200
2018-08-04T05:33:08.257Z,200
2018-08-04T05:34:18.114Z,200
2018-08-04T05:35:28.239Z,200
2018-08-04T05:36:38.093Z,200
2018-08-04T05:37:48.206Z,200
2018-08-04T05:38:58.051Z,200
2018-08-04T05:40:08.161Z,200
2018-08-04T05:41:18.010Z,205
2018-08-04T05:42:28.131Z,195
2018-08-04T05:43:37.693Z,195
2018-08-04T05:44:46.729Z,190
2018-08-04T05:45:56.583Z,190
2018-08-04T05:47:06.432Z,180
2018-08-04T05:48:16.554Z,180
2018-08-04T05:49:25.881Z,175
2018-08-04T05:50:35.725Z,165
2018-08-04T05:51:45.577Z,150
2018-08-04T05:52:55.697Z,140
2018-08-04T05:54:05.540Z,135
2018-08-04T05:55:15.386Z,125
2018-08-04T05:56:25.509Z,125
2018-08-04T05:57:35.083Z,125
2018-08-04T05:58:44.930Z,120
2018-08-04T05:59:54.515Z,110
2018-08-04T06:01:04.103Z,110
2018-08-04T06:02:13.959Z,115
2018-08-04T06:03:24.176Z,115
2018-08-04T06:04:34.101Z,110
2018-08-04T06:05:44.239Z,110
2018-08-04T06:06:54.084Z,110
2018-08-04T06:08:03.934Z,110
2018-08-04T06:09:13.777Z,110
2018-08-04T06:10:23.893Z,110
2018-08-04T06:11:33.745Z,105
2018-08-04T06:12:43.591Z,105
2018-08-04T06:13:53.169Z,105
2018-08-04T06:15:02.743Z,105
2018-08-04T06:16:12.055Z,110
2018-08-04T06:17:22.179Z,110
2018-08-04T06:18:32.286Z,115
2018-08-04T06:19:41.593Z,115
2018-08-04T06:20:51.448Z,120
2018-08-04T06:22:01.639Z,120
2018-08-04T06:23:10.677Z,115
2018-08-04T06:24:20.569Z,115
2018-08-04T06:25:30.681Z,115
2018-08-04T06:26:40.806Z,115
2018-08-04T06:27:50.657Z,120
2018-08-04T06:29:00.510Z,125
2018-08-04T06:30:10.089Z,135
2018-08-04T06:31:19.930Z,130
2018-08-04T06:32:29.513Z,140
2018-08-04T06:33:39.655Z,135
2018-08-04T06:34:48.961Z,140
2018-08-04T06:35:58.538Z,140
2018-08-04T06:37:08.393Z,140
2018-08-04T06:38:18.240Z,145
2018-08-04T06:39:28.088Z,145
2018-08-04T06:40:37.929Z,150
2018-08-04T06:41:48.378Z,155
2018-08-04T06:42:58.231Z,155
2018-08-04T06:44:07.802Z,155
2018-08-04T06:45:17.643Z,155
2018-08-04T06:46:27.228Z,155
2018-08-04T06:47:36.800Z,155
2018-08-04T06:48:46.122Z,155
2018-08-04T06:49:55.971Z,160
2018-08-04T06:51:05.812Z,155
2018-08-04T06:52:15.391Z,155
2018-08-04T06:53:25.503Z,155
2018-08-04T06:54:35.385Z,160
2018-08-04T06:55:44.698Z,155
2018-08-04T06:56:54.542Z,155
2018-08-04T06:58:04.388Z,155
2018-08-04T06:59:14.515Z,155
2018-08-04T07:00:24.096Z,155
2018-08-04T07:01:33.938Z,155
2018-08-04T07:02:43.511Z,155
2018-08-04T07:03:53.629Z,155
2018-08-04T07:05:03.261Z,155
2018-08-04T07:06:13.383Z,155
2018-08-04T07:07:22.962Z,150
2018-08-04T07:08:33.073Z,155
2018-08-04T07:09:42.931Z,150
2018-08-04T07:10:53.052Z,155
2018-08-04T07:12:02.900Z,160
2018-08-04T07:13:12.479Z,160
2018-08-04T07:14:22.322Z,160
2018-08-04T07:15:31.904Z,160
2018-08-04T07:16:41.481Z,155
2018-08-04T07:17:51.325Z,160
2018-08-04T07:19:00.366Z,160
2018-08-04T07:20:10.216Z,155
2018-08-04T07:21:19.794Z,155
2018-08-04T07:22:29.650Z,160
2018-08-04T07:23:39.218Z,160
2018-08-04T07:24:48.526Z,160
2018-08-04T07:25:58.108Z,160
2018-08-04T07:27:07.953Z,160
2018-08-04T07:28:18.074Z,165
2018-08-04T07:29:27.394Z,165
2018-08-04T07:30:37.240Z,165
2018-08-04T07:31:46.810Z,165
2018-08-04T07:32:55.843Z,165
2018-08-04T07:34:05.144Z,165
2018-08-04T07:35:14.999Z,165
2018-08-04T07:36:25.126Z,165
2018-08-04T07:37:34.984Z,160
2018-08-04T07:38:44.302Z,160
2018-08-04T07:39:54.145Z,160
2018-08-04T07:41:04.721Z,160
2018-08-04T07:42:14.900Z,160
2018-08-04T07:43:25.015Z,160
2018-08-04T07:44:35.129Z,160
2018-08-04T07:45:44.699Z,160
2018-08-04T07:46:53.737Z,160
2018-08-04T07:48:03.588Z,160
2018-08-04T07:49:14.071Z,165
2018-08-04T07:50:23.710Z,165
2018-08-04T07:51:33.337Z,165
2018-08-04T07:52:42.920Z,165
2018-08-04T07:53:52.503Z,165
2018-08-04T07:55:02.084Z,170
2018-08-04T07:56:11.663Z,165
2018-08-04T07:57:21.512Z,165
2018-08-04T07:58:30.823Z,165
2018-08-04T07:59:40.767Z,165
2018-08-04T08:00:50.878Z,170
2018-08-04T08:02:00.185Z,170
2018-08-04T08:03:09.770Z,170
2018-08-04T08:04:19.343Z,170
2018-08-04T08:05:28.937Z,170
2018-08-04T08:06:38.783Z,170
2018-08-04T08:07:48.091Z,170
2018-08-04T08:08:57.128Z,170
2018-08-04T08:10:06.697Z,170
2018-08-04T08:11:16.997Z,170
2018-08-04T08:12:26.584Z,170
2018-08-04T08:13:36.431Z,170
2018-08-04T08:14:46.056Z,170
2018-08-04T08:15:56.177Z,170
2018-08-04T08:17:05.753Z,170
2018-08-04T08:18:15.058Z,175
2018-08-04T08:19:25.320Z,175
2018-08-04T08:20:34.338Z,175
2018-08-04T08:21:44.194Z,175
2018-08-04T08:22:54.048Z,175
2018-08-04T08:24:03.634Z,175
2018-08-04T08:25:13.485Z,175
2018-08-04T08:26:23.328Z,175
2018-08-04T08:27:33.175Z,175
2018-08-04T08:28:43.021Z,175
2018-08-04T08:29:52.882Z,175
2018-08-04T08:31:02.996Z,175
2018-08-04T08:32:12.596Z,175
2018-08-04T08:33:21.905Z,180
2018-08-04T08:34:32.020Z,180
2018-08-04T08:35:41.860Z,180
2018-08-04T08:36:51.705Z,180
2018-08-04T08:38:01.867Z,180
2018-08-04T08:39:11.712Z,180
2018-08-04T08:40:21.116Z,180
2018-08-04T08:41:30.445Z,185
2018-08-04T08:42:40.577Z,185
2018-08-04T08:43:50.690Z,185
2018-08-04T08:45:00.538Z,185
2018-08-04T08:46:10.140Z,185
2018-08-04T08:47:19.899Z,185
2018-08-04T08:48:29.443Z,185
2018-08-04T08:49:38.749Z,185
2018-08-04T08:50:48.594Z,190
2018-08-04T08:51:57.903Z,190
2018-08-04T08:53:07.783Z,190
2018-08-04T08:54:18.537Z,190
2018-08-04T08:55:28.431Z,190
2018-08-04T08:56:38.027Z,195
2018-08-04T08:57:47.342Z,200
2018-08-04T08:58:57.194Z,210
2018-08-04T09:00:07.057Z,220
2018-08-04T09:01:17.258Z,225
2018-08-04T09:02:27.387Z,235
2018-08-04T09:03:37.246Z,240
2018-08-04T09:04:47.366Z,245
2018-08-04T09:05:57.487Z,265
2018-08-04T09:07:07.122Z,240
2018-08-04T09:08:17.075Z,225
2018-08-04T09:09:26.930Z,225
2018-08-04T09:10:35.970Z,240
2018-08-04T09:11:45.011Z,255
2018-08-04T09:12:54.856Z,275
2018-08-04T09:14:04.170Z,270
2018-08-04T09:15:14.298Z,240
2018-08-04T09:16:24.155Z,240
2018-08-04T09:17:34.000Z,250
2018-08-04T09:18:44.127Z,255
2018-08-04T09:19:53.438Z,270
2018-08-04T09:21:03.281Z,270
2018-08-04T09:22:13.394Z,275
2018-08-04T09:23:23.510Z,265
2018-08-04T09:24:33.091Z,240
2018-08-04T09:25:42.428Z,240
2018-08-04T09:26:52.281Z,260
2018-08-04T09:28:01.853Z,275
2018-08-04T09:29:11.161Z,265
2018-08-04T09:30:20.735Z,255
2018-08-04T09:31:29.774Z,225
2018-08-04T09:32:39.618Z,235
2018-08-04T09:33:49.736Z,235
2018-08-04T09:34:59.314Z,245
2018-08-04T09:36:08.893Z,255
2018-08-04T09:37:18.750Z,270
2018-08-04T09:38:28.646Z,280
2018-08-04T09:39:38.230Z,290
2018-08-04T09:40:48.378Z,265
2018-08-04T09:41:57.684Z,250
2018-08-04T09:43:06.716Z,265
2018-08-04T09:44:16.022Z,290
2018-08-04T09:45:25.604Z,340
2018-08-04T09:46:35.454Z,365
2018-08-04T09:47:45.029Z,365
2018-08-04T09:48:54.878Z,370
2018-08-04T09:50:04.199Z,355
2018-08-04T09:51:14.052Z,325
2018-08-04T09:52:23.685Z,320
2018-08-04T09:53:33.827Z,335
2018-08-04T09:54:43.136Z,345
2018-08-04T09:55:52.453Z,335
2018-08-04T09:57:02.575Z,325
2018-08-04T09:58:11.896Z,340
2018-08-04T09:59:22.019Z,315
2018-08-04T10:00:31.326Z,290
2018-08-04T10:01:41.179Z,265
2018-08-04T10:02:50.796Z,265
2018-08-04T10:04:00.915Z,275
2018-08-04T10:05:11.225Z,245
2018-08-04T10:06:20.597Z,250
2018-08-04T10:07:30.710Z,245
2018-08-04T10:08:40.557Z,255
2018-08-04T10:09:50.435Z,255
2018-08-04T10:11:00.011Z,255
2018-08-04T10:12:09.604Z,260
2018-08-04T10:13:19.469Z,265
2018-08-04T10:14:29.585Z,260
2018-08-04T10:15:39.161Z,255
2018-08-04T10:16:49.276Z,275
2018-08-04T10:17:58.584Z,295
2018-08-04T10:19:08.433Z,310
2018-08-04T10:20:18.850Z,280
2018-08-04T10:21:28.485Z,255
2018-08-04T10:22:38.341Z,245
2018-08-04T10:23:48.476Z,240
2018-08-04T10:24:58.595Z,255
2018-08-04T10:26:08.453Z,270
2018-08-04T10:27:18.659Z,280
2018-08-04T10:28:28.239Z,265
2018-08-04T10:29:37.279Z,250
2018-08-04T10:30:47.130Z,255
2018-08-04T10:31:57.587Z,250
2018-08-04T10:33:07.092Z,260
2018-08-04T10:34:16.663Z,265
2018-08-04T10:35:25.967Z,265
2018-08-04T10:36:35.818Z,275
2018-08-04T10:37:45.938Z,290
2018-08-04T10:38:55.247Z,305
2018-08-04T10:40:04.824Z,310
2018-08-04T10:41:14.409Z,315
2018-08-04T10:42:23.987Z,305
2018-08-04T10:43:33.634Z,315
2018-08-04T10:44:43.486Z,315
2018-08-04T10:45:53.339Z,310
2018-08-04T10:47:03.458Z,305
2018-08-04T10:48:13.582Z,300
2018-08-04T10:49:23.708Z,295
2018-08-04T10:50:33.830Z,290
2018-08-04T10:51:43.136Z,285
2018-08-04T10:52:52.713Z,285
2018-08-04T10:54:02.568Z,285
2018-08-04T10:55:12.683Z,300
2018-08-04T10:56:21.720Z,320
2018-08-04T10:57:31.299Z,340
2018-08-04T10:58:41.149Z,355
2018-08-04T10:59:50.483Z,350
2018-08-04T11:01:00.336Z,355
2018-08-04T11:02:09.916Z,380
2018-08-04T11:03:19.762Z,425
2018-08-04T11:04:29.073Z,490
2018-08-04T11:05:38.924Z,530
2018-08-04T11:06:48.508Z,550
2018-08-04T11:07:57.827Z,560
2018-08-04T11:09:07.684Z,530
2018-08-04T11:10:17.538Z,505
2018-08-04T11:11:27.443Z,460
2018-08-04T11:12:37.352Z,380
2018-08-04T11:13:46.829Z,375
2018-08-04T11:14:56.409Z,385
2018-08-04T11:16:06.255Z,390
2018-08-04T11:17:15.836Z,390
2018-08-04T11:18:25.761Z,400
2018-08-04T11:19:35.611Z,395
2018-08-04T11:20:45.476Z,380
2018-08-04T11:21:55.323Z,330
2018-08-04T11:23:04.898Z,350
2018-08-04T11:24:15.453Z,360
2018-08-04T11:25:25.647Z,375
2018-08-04T11:26:34.961Z,390
2018-08-04T11:27:45.205Z,395
2018-08-04T11:28:54.791Z,395
2018-08-04T11:30:04.104Z,395
2018-08-04T11:31:13.686Z,400
2018-08-04T11:32:22.997Z,395
2018-08-04T11:33:32.841Z,385
2018-08-04T11:34:42.426Z,370
2018-08-04T11:35:52.011Z,365
2018-08-04T11:37:01.860Z,365
2018-08-04T11:38:11.169Z,375
2018-08-04T11:39:21.067Z,395
2018-08-04T11:40:30.912Z,445
2018-08-04T11:41:40.760Z,520
2018-08-04T11:42:50.335Z,580
2018-08-04T11:43:59.647Z,570
2018-08-04T11:45:09.767Z,560
2018-08-04T11:46:19.894Z,600
2018-08-04T11:47:29.748Z,625
2018-08-04T11:48:39.859Z,560
2018-08-04T11:49:49.441Z,500
2018-08-04T11:50:59.026Z,520
2018-08-04T11:52:08.919Z,510
2018-08-04T11:53:18.224Z,560
2018-08-04T11:54:28.073Z,575
2018-08-04T11:55:38.193Z,495
2018-08-04T11:56:47.504Z,555
2018-08-04T11:57:57.673Z,600
2018-08-04T11:59:07.351Z,635
2018-08-04T12:00:16.664Z,855
2018-08-04T12:01:26.789Z,2035
2018-08-04T12:02:36.918Z,510
2018-08-04T12:03:46.504Z,550
2018-08-04T12:04:55.860Z,605
2018-08-04T12:06:04.857Z,750
2018-08-04T12:07:14.720Z,2195
2018-08-04T12:08:24.665Z,2315
2018-08-04T12:09:34.512Z,2570
2018-08-04T12:10:44.091Z,2645
2018-08-04T12:11:53.944Z,2795
2018-08-04T12:13:03.523Z,3055
2018-08-04T12:14:13.376Z,2690
2018-08-04T12:15:22.953Z,2785
2018-08-04T12:16:32.529Z,2715
2018-08-04T12:17:42.116Z,2805
2018-08-04T12:18:51.971Z,2760
2018-08-04T12:20:02.093Z,2765
2018-08-04T12:21:11.685Z,2860
2018-08-04T12:22:21.542Z,2845
2018-08-04T12:23:31.661Z,2905
2018-08-04T12:24:41.239Z,2840
2018-08-04T12:25:51.137Z,2855
2018-08-04T12:27:00.515Z,2765
2018-08-04T12:28:09.833Z,2820
2018-08-04T12:29:19.147Z,2755
2018-08-04T12:30:28.726Z,2745
2018-08-04T12:31:38.942Z,2950
2018-08-04T12:32:48.531Z,2870
2018-08-04T12:33:58.109Z,2670
2018-08-04T12:35:07.969Z,2920
2018-08-04T12:36:17.286Z,3065
2018-08-04T12:37:27.247Z,3025
2018-08-04T12:38:36.778Z,3145
2018-08-04T12:39:46.376Z,2940
2018-08-04T12:40:55.966Z,2865
2018-08-04T12:42:05.831Z,2980
2018-08-04T12:43:15.686Z,2995
2018-08-04T12:44:25.277Z,3090
2018-08-04T12:45:35.382Z,3080
2018-08-04T12:46:44.987Z,3040
2018-08-04T12:47:54.838Z,3110
2018-08-04T12:49:04.434Z,3125
2018-08-04T12:50:14.025Z,3025
2018-08-04T12:51:23.894Z,2975
2018-08-04T12:52:33.491Z,3105
2018-08-04T12:53:43.354Z,2975
2018-08-04T12:54:52.948Z,3010
2018-08-04T12:56:02.542Z,2985
2018-08-04T12:57:12.409Z,3115
2018-08-04T12:58:22.269Z,3350
2018-08-04T12:59:31.934Z,2975
2018-08-04T13:00:41.254Z,2780
2018-08-04T13:01:51.209Z,2815
2018-08-04T13:03:01.063Z,2915
2018-08-04T13:04:10.647Z,2675
2018-08-04T13:05:19.961Z,2835
2018-08-04T13:06:29.561Z,1310
2018-08-04T13:07:39.411Z,3045
2018-08-04T13:08:49.811Z,2955
2018-08-04T13:09:59.997Z,2955
2018-08-04T13:11:09.859Z,3030
2018-08-04T13:12:19.187Z,855
2018-08-04T13:13:29.323Z,1530
2018-08-04T13:14:38.913Z,895
2018-08-04T13:15:48.233Z,930
2018-08-04T13:16:58.090Z,1675
2018-08-04T13:18:07.409Z,2315
2018-08-04T13:19:17.003Z,2325
2018-08-04T13:20:26.592Z,1735
2018-08-04T13:21:36.715Z,1680
2018-08-04T13:22:46.569Z,1015
2018-08-04T13:23:55.889Z,2825
2018-08-04T13:25:06.079Z,2835
2018-08-04T13:26:15.662Z,2710
2018-08-04T13:27:25.782Z,2815
2018-08-04T13:28:35.104Z,910
2018-08-04T13:29:45.484Z,900
2018-08-04T13:30:55.422Z,1180
2018-08-04T13:32:05.281Z,2140
2018-08-04T13:33:14.870Z,780
2018-08-04T13:34:24.739Z,615
2018-08-04T13:35:34.053Z,705
2018-08-04T13:36:44.184Z,830
2018-08-04T13:37:53.770Z,1400
2018-08-04T13:39:03.081Z,2455
2018-08-04T13:40:12.939Z,2390
2018-08-04T13:41:22.524Z,2675
2018-08-04T13:42:32.111Z,2740
2018-08-04T13:43:41.788Z,2105
2018-08-04T13:44:51.636Z,885
2018-08-04T13:46:00.415Z,910
2018-08-04T13:47:10.270Z,1245
2018-08-04T13:48:19.855Z,875
2018-08-04T13:49:29.718Z,2485
2018-08-04T13:50:39.307Z,1460
2018-08-04T13:51:48.888Z,1155
2018-08-04T13:52:58.210Z,1080
2018-08-04T13:54:08.062Z,2320
2018-08-04T13:55:17.656Z,2965
2018-08-04T13:56:27.236Z,2865
2018-08-04T13:57:36.287Z,2865
2018-08-04T13:58:46.413Z,3175
2018-08-04T13:59:56.421Z,3175
2018-08-04T14:01:06.010Z,2935
2018-08-04T14:02:16.141Z,2930
2018-08-04T14:03:25.738Z,2780
2018-08-04T14:04:35.607Z,2635
2018-08-04T14:05:45.212Z,880
2018-08-04T14:06:55.346Z,960
2018-08-04T14:08:05.224Z,1130
2018-08-04T14:09:15.082Z,1700
2018-08-04T14:10:24.669Z,2440
2018-08-04T14:11:34.796Z,1850
2018-08-04T14:12:44.132Z,1010
2018-08-04T14:13:54.024Z,2685
2018-08-04T14:15:03.342Z,2735
2018-08-04T14:16:13.002Z,2540
2018-08-04T14:17:23.198Z,2385
2018-08-04T14:18:32.512Z,1475
2018-08-04T14:19:42.378Z,945
2018-08-04T14:20:52.253Z,2420
2018-08-04T14:22:01.599Z,775
2018-08-04T14:23:10.914Z,715
2018-08-04T14:24:20.509Z,1805
2018-08-04T14:25:30.358Z,2225
2018-08-04T14:26:40.211Z,1930
2018-08-04T14:27:50.067Z,855
2018-08-04T14:29:00.150Z,665
2018-08-04T14:30:09.743Z,690
2018-08-04T14:31:19.066Z,720
2018-08-04T14:32:29.232Z,825
2018-08-04T14:33:39.153Z,1440
2018-08-04T14:34:49.157Z,1070
2018-08-04T14:35:59.351Z,1220
2018-08-04T14:37:08.948Z,680
2018-08-04T14:38:18.545Z,770
2018-08-04T14:39:28.687Z,1385
2018-08-04T14:40:38.544Z,2085
2018-08-04T14:41:48.130Z,2130
2018-08-04T14:42:58.221Z,2185
2018-08-04T14:44:07.666Z,2135
2018-08-04T14:45:17.261Z,2375
2018-08-04T14:46:27.116Z,2335
2018-08-04T14:47:36.700Z,2350
2018-08-04T14:48:46.828Z,2110
2018-08-04T14:49:56.422Z,2080
2018-08-04T14:51:06.281Z,2120
2018-08-04T14:52:15.380Z,2115
2018-08-04T14:53:24.703Z,2175
2018-08-04T14:54:34.290Z,2200
2018-08-04T14:55:43.882Z,2050
2018-08-04T14:56:53.474Z,1930
2018-08-04T14:58:03.061Z,2100
2018-08-04T14:59:12.915Z,1400
2018-08-04T15:00:22.769Z,840
2018-08-04T15:01:32.638Z,765
2018-08-04T15:02:42.771Z,925
2018-08-04T15:03:52.091Z,1105
2018-08-04T15:05:02.830Z,2175
2018-08-04T15:06:12.787Z,2205
2018-08-04T15:07:22.653Z,2340
2018-08-04T15:08:32.517Z,2430
2018-08-04T15:09:42.434Z,2480
2018-08-04T15:10:52.558Z,2405
2018-08-04T15:12:02.429Z,2360
2018-08-04T15:13:12.017Z,2435
2018-08-04T15:14:21.602Z,2275
2018-08-04T15:15:31.456Z,2060
2018-08-04T15:16:40.775Z,2300
2018-08-04T15:17:50.367Z,2175
2018-08-04T15:19:00.225Z,2440
2018-08-04T15:20:09.276Z,2175
2018-08-04T15:21:19.401Z,1980
2018-08-04T15:22:29.547Z,830
2018-08-04T15:23:38.867Z,1665
2018-08-04T15:24:48.456Z,1870
2018-08-04T15:25:57.772Z,1510
2018-08-04T15:27:06.824Z,2065
2018-08-04T15:28:16.683Z,2095
2018-08-04T15:29:26.805Z,1130
2018-08-04T15:30:36.394Z,755
2018-08-04T15:31:45.976Z,1545
2018-08-04T15:32:55.610Z,2085
2018-08-04T15:34:06.078Z,2135
2018-08-04T15:35:15.944Z,1960
2018-08-04T15:36:25.529Z,1865
2018-08-04T15:37:35.395Z,1645
2018-08-04T15:38:44.982Z,635
2018-08-04T15:39:54.844Z,600
2018-08-04T15:41:04.433Z,1435
2018-08-04T15:42:14.018Z,1785
2018-08-04T15:43:23.878Z,1925
2018-08-04T15:44:33.497Z,1870
2018-08-04T15:45:43.355Z,1880
2018-08-04T15:46:53.212Z,1880
2018-08-04T15:48:03.214Z,1910
2018-08-04T15:49:13.089Z,2100
2018-08-04T15:50:23.209Z,2145
2018-08-04T15:51:33.336Z,2245
2018-08-04T15:52:43.196Z,2265
2018-08-04T15:53:53.049Z,2150
2018-08-04T15:55:03.174Z,2225
2018-08-04T15:56:13.306Z,2200
2018-08-04T15:57:22.892Z,1980
2018-08-04T15:58:31.938Z,1715
2018-08-04T15:59:41.796Z,1765
2018-08-04T16:00:51.655Z,1915
2018-08-04T16:02:00.972Z,1965
2018-08-04T16:03:10.834Z,2040
2018-08-04T16:04:20.430Z,1960
2018-08-04T16:05:30.020Z,1445
2018-08-04T16:06:39.924Z,1145
2018-08-04T16:07:49.509Z,1480
2018-08-04T16:08:59.373Z,1640
2018-08-04T16:10:08.962Z,1930
2018-08-04T16:11:19.082Z,1910